Time;durP1;ratioP1;P1;durP2;ratioP2;P2;SDS_P1;SDS_P2;PMS_P1;PMS_P2;Temp;Humidity;BMP_temperature;BMP_pressure;BME280_temperature;BME280_humidity;BME280_pressure;Samples;Min_cycle;Max_cycle;Signal;HPM_P1;HPM_P2
2024/02/27 00:01:18;;;;;;;24.73;15.00;;;;;;;;;;5034766;28;20512;-86
2024/02/27 00:03:44;;;;;;;27.20;15.30;;;;;;;;;;5034822;28;20458;-87
2024/02/27 00:06:10;;;;;;;28.87;15.80;;;;;;;;;;5034961;28;20484;-84
2024/02/27 00:08:36;;;;;;;38.60;16.83;;;;;;;;;;5035994;28;20415;-86
2024/02/27 00:11:02;;;;;;;27.70;14.77;;;;;;;;;;5034731;28;20422;-87
2024/02/27 00:13:28;;;;;;;25.00;13.37;;;;;;;;;;5034439;28;20773;-85
2024/02/27 00:15:54;;;;;;;26.70;13.60;;;;;;;;;;5034658;28;20508;-86
2024/02/27 00:18:20;;;;;;;25.40;12.90;;;;;;;;;;5034631;28;20502;-88
2024/02/27 00:20:46;;;;;;;28.37;14.87;;;;;;;;;;5034359;28;20455;-89
2024/02/27 00:23:12;;;;;;;29.97;14.10;;;;;;;;;;5034366;28;20500;-86
2024/02/27 00:25:38;;;;;;;29.90;14.40;;;;;;;;;;5034271;28;20427;-86
2024/02/27 00:28:04;;;;;;;26.20;15.40;;;;;;;;;;5033256;28;20417;-85
2024/02/27 00:30:30;;;;;;;25.40;13.90;;;;;;;;;;5034077;28;20424;-87
2024/02/27 00:32:56;;;;;;;29.70;15.90;;;;;;;;;;5035380;28;20410;-84
2024/02/27 00:35:22;;;;;;;30.87;15.07;;;;;;;;;;5033578;28;20522;-86
2024/02/27 00:37:48;;;;;;;27.93;15.20;;;;;;;;;;5036001;28;20416;-87
2024/02/27 00:40:14;;;;;;;28.77;14.50;;;;;;;;;;5034977;28;20829;-86
2024/02/27 00:42:40;;;;;;;30.50;15.97;;;;;;;;;;5036759;28;20424;-87
2024/02/27 00:45:06;;;;;;;31.90;14.83;;;;;;;;;;5035238;28;20917;-88
2024/02/27 00:47:32;;;;;;;28.17;13.37;;;;;;;;;;5037069;28;20504;-87
2024/02/27 00:49:58;;;;;;;28.50;14.23;;;;;;;;;;5036581;28;20501;-87
2024/02/27 00:52:24;;;;;;;28.37;14.40;;;;;;;;;;5035592;28;20449;-87
2024/02/27 00:54:50;;;;;;;32.67;15.23;;;;;;;;;;5035304;28;20480;-87
2024/02/27 00:57:16;;;;;;;31.40;15.60;;;;;;;;;;5034895;28;20442;-88
2024/02/27 00:59:42;;;;;;;28.27;14.37;;;;;;;;;;5034172;28;20782;-87
2024/02/27 01:02:08;;;;;;;27.00;14.53;;;;;;;;;;5035298;28;20409;-90
2024/02/27 01:04:34;;;;;;;28.10;14.30;;;;;;;;;;5034441;28;20433;-87
2024/02/27 01:07:00;;;;;;;31.03;15.37;;;;;;;;;;5034493;28;20924;-89
2024/02/27 01:09:26;;;;;;;31.73;16.23;;;;;;;;;;5033559;28;20425;-87
2024/02/27 01:11:52;;;;;;;31.17;15.73;;;;;;;;;;5032432;28;20424;-87
2024/02/27 01:14:18;;;;;;;25.50;14.93;;;;;;;;;;5034639;28;20803;-86
2024/02/27 01:16:44;;;;;;;28.77;16.20;;;;;;;;;;5034615;28;20494;-86
2024/02/27 01:19:10;;;;;;;27.97;15.80;;;;;;;;;;5033030;28;20420;-87
2024/02/27 01:21:36;;;;;;;28.53;14.13;;;;;;;;;;5033430;28;20544;-87
2024/02/27 01:24:02;;;;;;;26.47;15.00;;;;;;;;;;5033402;28;20410;-87
2024/02/27 01:26:28;;;;;;;30.03;16.83;;;;;;;;;;5033431;28;20453;-88
2024/02/27 01:28:54;;;;;;;27.40;14.17;;;;;;;;;;5033392;28;20477;-86
2024/02/27 01:31:20;;;;;;;25.43;14.97;;;;;;;;;;5034309;28;20413;-87
2024/02/27 01:33:46;;;;;;;26.10;14.97;;;;;;;;;;5032735;28;20789;-88
2024/02/27 01:36:12;;;;;;;28.40;16.07;;;;;;;;;;5034431;28;20836;-88
2024/02/27 01:38:38;;;;;;;28.63;15.70;;;;;;;;;;5032702;28;20504;-87
2024/02/27 01:41:05;;;;;;;23.23;13.87;;;;;;;;;;5034064;28;20802;-86
2024/02/27 01:43:31;;;;;;;21.80;13.70;;;;;;;;;;5033065;28;20417;-86
2024/02/27 01:46:16;;;;;;;25.07;15.30;;;;;;;;;;5032892;28;20414;-87
2024/02/27 01:48:43;;;;;;;27.70;15.60;;;;;;;;;;5032388;28;20818;-87
2024/02/27 01:51:10;;;;;;;23.23;14.53;;;;;;;;;;5032950;28;20423;-87
2024/02/27 01:53:37;;;;;;;23.77;12.53;;;;;;;;;;5032952;28;20410;-86
2024/02/27 01:56:06;;;;;;;27.87;16.27;;;;;;;;;;5032518;28;20508;-88
2024/02/27 01:58:32;;;;;;;24.80;13.73;;;;;;;;;;5032856;28;20526;-89
2024/02/27 02:00:58;;;;;;;29.40;15.90;;;;;;;;;;5032938;28;20500;-88
2024/02/27 02:03:25;;;;;;;28.00;14.70;;;;;;;;;;5031004;28;20427;-88
2024/02/27 02:05:52;;;;;;;29.23;16.77;;;;;;;;;;5033870;28;20421;-88
2024/02/27 02:08:18;;;;;;;29.83;16.60;;;;;;;;;;5032508;28;20488;-88
2024/02/27 02:10:44;;;;;;;26.30;14.77;;;;;;;;;;5033667;28;20421;-88
2024/02/27 02:13:10;;;;;;;31.03;17.67;;;;;;;;;;5032701;28;20427;-88
2024/02/27 02:15:36;;;;;;;27.40;17.10;;;;;;;;;;5032628;28;20827;-88
2024/02/27 02:18:02;;;;;;;28.37;16.93;;;;;;;;;;5032392;28;20413;-89
2024/02/27 02:20:29;;;;;;;33.27;19.00;;;;;;;;;;5032178;28;20491;-87
2024/02/27 02:22:55;;;;;;;29.27;16.50;;;;;;;;;;5032529;28;20416;-87
2024/02/27 02:25:21;;;;;;;31.80;16.53;;;;;;;;;;5032463;28;20411;-89
2024/02/27 02:27:49;;;;;;;32.23;17.17;;;;;;;;;;5032387;28;20763;-89
2024/02/27 02:30:15;;;;;;;32.00;18.37;;;;;;;;;;5032585;28;20425;-89
2024/02/27 02:32:50;;;;;;;28.00;14.40;;;;;;;;;;5033982;28;20764;-88
2024/02/27 02:35:16;;;;;;;21.13;13.13;;;;;;;;;;5032173;28;20469;-88
2024/02/27 02:37:48;;;;;;;20.73;13.60;;;;;;;;;;5034020;28;20411;-89
2024/02/27 02:40:14;;;;;;;24.10;14.47;;;;;;;;;;5032729;28;20474;-90
2024/02/27 02:42:41;;;;;;;25.30;14.13;;;;;;;;;;5032759;28;20753;-89
2024/02/27 02:45:07;;;;;;;27.30;15.97;;;;;;;;;;5033965;28;20420;-89
2024/02/27 02:47:33;;;;;;;25.67;13.50;;;;;;;;;;5033930;28;20410;-88
2024/02/27 02:49:59;;;;;;;28.47;14.07;;;;;;;;;;5032562;28;20565;-89
2024/02/27 02:52:27;;;;;;;27.77;15.30;;;;;;;;;;5032605;28;20485;-89
2024/02/27 02:54:53;;;;;;;29.07;16.67;;;;;;;;;;5032422;28;20484;-89
2024/02/27 02:57:19;;;;;;;25.00;15.57;;;;;;;;;;5032357;28;20421;-88
2024/02/27 02:59:45;;;;;;;26.00;15.93;;;;;;;;;;5032688;28;20504;-90
2024/02/27 03:02:11;;;;;;;22.20;12.13;;;;;;;;;;5032558;28;20514;-89
2024/02/27 03:04:37;;;;;;;26.50;13.80;;;;;;;;;;5032695;28;20428;-89
2024/02/27 03:07:04;;;;;;;28.13;15.17;;;;;;;;;;5032190;28;20909;-89
2024/02/27 03:09:33;;;;;;;27.07;16.93;;;;;;;;;;5033573;28;20421;-89
2024/02/27 03:12:00;;;;;;;25.80;15.53;;;;;;;;;;5033789;28;20412;-90
2024/02/27 03:14:26;;;;;;;30.03;17.40;;;;;;;;;;5032206;28;20473;-90
2024/02/27 03:16:53;;;;;;;30.37;15.20;;;;;;;;;;5032473;28;20501;-89
2024/02/27 03:19:19;;;;;;;28.77;16.87;;;;;;;;;;5032151;28;20430;-89
2024/02/27 03:21:45;;;;;;;25.87;14.30;;;;;;;;;;5032272;28;20424;-89
2024/02/27 03:24:11;;;;;;;26.80;14.00;;;;;;;;;;5032320;28;20506;-88
2024/02/27 03:26:37;;;;;;;26.83;15.50;;;;;;;;;;5032204;28;20413;-90
2024/02/27 03:29:03;;;;;;;29.03;17.07;;;;;;;;;;5033773;28;20424;-90
2024/02/27 03:31:29;;;;;;;27.13;14.90;;;;;;;;;;5031895;28;21872;-89
2024/02/27 03:33:55;;;;;;;30.17;16.83;;;;;;;;;;5033050;28;20452;-90
2024/02/27 03:36:21;;;;;;;26.27;15.23;;;;;;;;;;5035893;28;20463;-88
2024/02/27 03:38:47;;;;;;;30.60;16.03;;;;;;;;;;5035970;28;20475;-90
2024/02/27 03:41:13;;;;;;;28.97;16.33;;;;;;;;;;5036164;28;20519;-89
2024/02/27 03:43:41;;;;;;;27.13;15.73;;;;;;;;;;5036232;28;20431;-89
2024/02/27 03:46:07;;;;;;;33.80;17.40;;;;;;;;;;5035778;28;20535;-89
2024/02/27 03:48:33;;;;;;;29.67;17.80;;;;;;;;;;5035525;28;20501;-89
2024/02/27 03:50:58;;;;;;;25.90;15.17;;;;;;;;;;5035698;28;20563;-88
2024/02/27 03:53:24;;;;;;;33.30;17.53;;;;;;;;;;5035685;28;20780;-87
2024/02/27 03:55:51;;;;;;;27.80;16.50;;;;;;;;;;5036506;28;20475;-88
2024/02/27 03:58:17;;;;;;;29.83;17.07;;;;;;;;;;5036732;28;20410;-87
2024/02/27 04:00:43;;;;;;;36.40;18.77;;;;;;;;;;5035682;28;20775;-88
2024/02/27 04:03:29;;;;;;;27.50;17.43;;;;;;;;;;5034768;28;20470;-88
2024/02/27 04:05:55;;;;;;;29.67;16.80;;;;;;;;;;5035577;28;20448;-89
2024/02/27 04:08:21;;;;;;;31.97;17.63;;;;;;;;;;5035443;28;20760;-88
2024/02/27 04:10:47;;;;;;;34.30;18.80;;;;;;;;;;5035180;28;20425;-87
2024/02/27 04:13:13;;;;;;;33.97;18.80;;;;;;;;;;5035163;28;20428;-89
2024/02/27 04:15:39;;;;;;;29.97;18.43;;;;;;;;;;5035405;28;20482;-88
2024/02/27 04:18:05;;;;;;;33.40;18.77;;;;;;;;;;5034836;28;20410;-88
2024/02/27 04:20:31;;;;;;;31.10;18.60;;;;;;;;;;5034997;28;20425;-89
2024/02/27 04:22:57;;;;;;;29.23;15.90;;;;;;;;;;5036223;28;20469;-86
2024/02/27 04:25:23;;;;;;;27.70;14.97;;;;;;;;;;5035772;28;20874;-87
2024/02/27 04:27:49;;;;;;;28.77;16.73;;;;;;;;;;5036093;28;20416;-88
2024/02/27 04:30:15;;;;;;;33.43;18.27;;;;;;;;;;5034882;28;20928;-88
2024/02/27 04:32:41;;;;;;;30.70;16.17;;;;;;;;;;5034601;28;20418;-89
2024/02/27 04:35:07;;;;;;;32.20;17.07;;;;;;;;;;5034682;28;20473;-87
2024/02/27 04:37:33;;;;;;;29.87;16.10;;;;;;;;;;5034773;28;20435;-88
2024/02/27 04:39:59;;;;;;;26.67;16.23;;;;;;;;;;5034896;28;20473;-89
2024/02/27 04:42:28;;;;;;;29.13;17.53;;;;;;;;;;5035002;28;20426;-88
2024/02/27 04:44:54;;;;;;;27.10;17.30;;;;;;;;;;5034593;28;20945;-87
2024/02/27 04:47:19;;;;;;;27.67;15.43;;;;;;;;;;5034745;28;20450;-89
2024/02/27 04:49:45;;;;;;;24.57;14.53;;;;;;;;;;5034673;28;20515;-89
2024/02/27 04:52:11;;;;;;;21.40;13.50;;;;;;;;;;5034927;28;20908;-90
2024/02/27 04:54:37;;;;;;;21.80;14.60;;;;;;;;;;5034742;28;20472;-91
2024/02/27 04:57:03;;;;;;;24.17;12.70;;;;;;;;;;5035242;28;20416;-90
2024/02/27 04:59:30;;;;;;;23.80;12.30;;;;;;;;;;5035153;28;20421;-91
2024/02/27 05:01:56;;;;;;;22.50;14.40;;;;;;;;;;5034717;28;20512;-88
2024/02/27 05:04:22;;;;;;;22.47;13.97;;;;;;;;;;5034565;28;21048;-88
2024/02/27 05:06:48;;;;;;;20.50;12.70;;;;;;;;;;5034730;28;20902;-91
2024/02/27 05:09:14;;;;;;;19.80;12.57;;;;;;;;;;5034776;28;20424;-90
2024/02/27 05:11:40;;;;;;;26.00;14.33;;;;;;;;;;5034977;28;20414;-89
2024/02/27 05:14:06;;;;;;;24.20;13.47;;;;;;;;;;5034373;28;20476;-89
2024/02/27 05:16:32;;;;;;;23.97;15.00;;;;;;;;;;5034607;28;20442;-90
2024/02/27 05:18:58;;;;;;;25.60;14.00;;;;;;;;;;5034289;28;20414;-89
2024/02/27 05:21:24;;;;;;;22.80;14.40;;;;;;;;;;5034915;28;20422;-88
2024/02/27 05:23:50;;;;;;;21.23;12.83;;;;;;;;;;5035798;28;20411;-88
2024/02/27 05:26:16;;;;;;;22.33;13.57;;;;;;;;;;5034310;28;20428;-87
2024/02/27 05:28:42;;;;;;;20.00;13.13;;;;;;;;;;5035531;28;20480;-88
2024/02/27 05:31:23;;;;;;;21.97;13.40;;;;;;;;;;5035598;28;20453;-87
2024/02/27 05:33:49;;;;;;;23.17;11.87;;;;;;;;;;5033766;28;20417;-87
2024/02/27 05:36:15;;;;;;;22.13;12.60;;;;;;;;;;5034773;28;20419;-88
2024/02/27 05:38:42;;;;;;;20.37;13.20;;;;;;;;;;5034591;28;20417;-87
2024/02/27 05:41:08;;;;;;;21.57;12.43;;;;;;;;;;5034783;28;20432;-88
2024/02/27 05:43:34;;;;;;;19.50;12.90;;;;;;;;;;5033335;28;20905;-88
2024/02/27 05:46:00;;;;;;;17.33;10.03;;;;;;;;;;5033143;28;20421;-88
2024/02/27 05:48:26;;;;;;;23.40;13.10;;;;;;;;;;5032938;28;20419;-87
2024/02/27 05:50:55;;;;;;;20.50;12.53;;;;;;;;;;5034523;28;20416;-88
2024/02/27 05:53:21;;;;;;;22.87;14.60;;;;;;;;;;5033257;28;20415;-89
2024/02/27 05:55:47;;;;;;;23.63;14.43;;;;;;;;;;5033308;28;20503;-89
2024/02/27 05:58:12;;;;;;;18.03;11.67;;;;;;;;;;5034106;28;20928;-88
2024/02/27 06:00:38;;;;;;;17.93;12.10;;;;;;;;;;5032880;28;20517;-87
2024/02/27 06:03:04;;;;;;;20.80;13.27;;;;;;;;;;5032721;28;20423;-88
2024/02/27 06:05:30;;;;;;;23.10;12.70;;;;;;;;;;5034291;28;20426;-87
2024/02/27 06:07:56;;;;;;;21.77;14.30;;;;;;;;;;5033338;28;20425;-89
2024/02/27 06:10:22;;;;;;;19.20;13.10;;;;;;;;;;5033379;28;20594;-88
2024/02/27 06:12:48;;;;;;;22.53;14.07;;;;;;;;;;5033214;28;20435;-89
2024/02/27 06:15:14;;;;;;;23.80;14.13;;;;;;;;;;5033383;28;20518;-89
2024/02/27 06:17:40;;;;;;;24.60;15.20;;;;;;;;;;5033005;28;20796;-89
2024/02/27 06:22:10;;;;;;;23.80;13.83;;;;;;;;;;5033114;28;20475;-87
2024/02/27 06:22:55;;;;;;;21.40;13.20;;;;;;;;;;5034159;28;20383;-88
2024/02/27 06:25:21;;;;;;;24.83;14.27;;;;;;;;;;5032828;28;20414;-87
2024/02/27 06:27:48;;;;;;;20.17;14.67;;;;;;;;;;5034002;28;20439;-89
2024/02/27 06:30:15;;;;;;;21.77;12.87;;;;;;;;;;5033039;28;20907;-89
2024/02/27 06:32:41;;;;;;;21.87;13.87;;;;;;;;;;5032552;28;20783;-90
2024/02/27 06:35:09;;;;;;;18.33;11.33;;;;;;;;;;5032879;28;20852;-87
2024/02/27 06:37:35;;;;;;;20.97;12.70;;;;;;;;;;5032657;28;20801;-87
2024/02/27 06:40:00;;;;;;;24.57;15.00;;;;;;;;;;5032651;28;20481;-88
2024/02/27 06:42:26;;;;;;;25.67;13.90;;;;;;;;;;5032617;28;20899;-89
2024/02/27 06:44:52;;;;;;;21.97;15.30;;;;;;;;;;5032259;28;20767;-86
2024/02/27 06:47:18;;;;;;;21.93;12.90;;;;;;;;;;5032137;28;20512;-87
2024/02/27 06:49:44;;;;;;;22.07;13.67;;;;;;;;;;5031939;28;20500;-89
2024/02/27 06:52:10;;;;;;;26.00;15.77;;;;;;;;;;5033882;28;20448;-88
2024/02/27 06:54:36;;;;;;;21.10;14.40;;;;;;;;;;5032231;28;20551;-89
2024/02/27 06:57:02;;;;;;;24.33;15.63;;;;;;;;;;5032162;28;20537;-89
2024/02/27 06:59:29;;;;;;;21.73;14.57;;;;;;;;;;5032544;28;20429;-89
2024/02/27 07:01:55;;;;;;;20.37;13.40;;;;;;;;;;5032125;28;20896;-90
2024/02/27 07:04:21;;;;;;;22.17;14.30;;;;;;;;;;5032278;28;20429;-88
2024/02/27 07:06:47;;;;;;;22.73;13.53;;;;;;;;;;5033030;28;20421;-88
2024/02/27 07:09:19;;;;;;;22.00;14.60;;;;;;;;;;5034358;28;20427;-88
2024/02/27 07:11:45;;;;;;;18.73;13.37;;;;;;;;;;5032270;28;20938;-89
2024/02/27 07:14:12;;;;;;;20.67;12.27;;;;;;;;;;5032216;28;20498;-88
2024/02/27 07:16:41;;;;;;;20.27;12.60;;;;;;;;;;5032654;28;20429;-90
2024/02/27 07:19:19;;;;;;;21.58;13.80;;;;;;;;;;5033345;28;20402;-89
2024/02/27 07:21:45;;;;;;;17.20;12.53;;;;;;;;;;5032668;28;20184;-90
2024/02/27 07:24:11;;;;;;;19.27;12.27;;;;;;;;;;5033339;28;20409;-88
2024/02/27 07:26:37;;;;;;;18.30;12.30;;;;;;;;;;5031571;28;20444;-88
2024/02/27 07:29:04;;;;;;;20.57;14.63;;;;;;;;;;5031709;28;20910;-89
2024/02/27 07:31:30;;;;;;;20.43;12.60;;;;;;;;;;5032923;28;20761;-89
2024/02/27 07:34:04;;;;;;;19.90;12.33;;;;;;;;;;5031263;28;20810;-88
2024/02/27 07:36:30;;;;;;;20.57;12.80;;;;;;;;;;5031516;28;20461;-90
2024/02/27 07:38:59;;;;;;;25.53;13.40;;;;;;;;;;5032703;28;20480;-88
2024/02/27 07:41:25;;;;;;;20.07;12.47;;;;;;;;;;5032786;28;20475;-89
2024/02/27 07:43:51;;;;;;;19.00;13.10;;;;;;;;;;5032775;28;20778;-87
2024/02/27 07:46:17;;;;;;;19.30;12.20;;;;;;;;;;5031433;28;20496;-89
2024/02/27 07:48:49;;;;;;;19.33;11.40;;;;;;;;;;5031079;28;20608;-87
2024/02/27 07:51:35;;;;;;;16.77;11.17;;;;;;;;;;5031332;28;20428;-88
2024/02/27 07:54:03;;;;;;;17.20;11.80;;;;;;;;;;5031144;28;20461;-89
2024/02/27 07:56:31;;;;;;;18.67;11.43;;;;;;;;;;5031375;28;20434;-90
2024/02/27 07:59:01;;;;;;;17.80;11.53;;;;;;;;;;5032591;28;20406;-85
2024/02/27 08:01:33;;;;;;;19.20;11.83;;;;;;;;;;5031315;28;20422;-87
2024/02/27 08:03:59;;;;;;;17.63;11.80;;;;;;;;;;5030914;28;20490;-87
2024/02/27 08:06:27;;;;;;;22.90;13.23;;;;;;;;;;5032452;28;20500;-89
2024/02/27 08:08:56;;;;;;;18.57;13.33;;;;;;;;;;5031365;28;20432;-86
2024/02/27 08:11:22;;;;;;;15.47;10.60;;;;;;;;;;5031293;28;20421;-87
2024/02/27 08:13:48;;;;;;;22.10;12.80;;;;;;;;;;5031301;28;20418;-87
2024/02/27 08:16:17;;;;;;;18.97;11.83;;;;;;;;;;5032450;28;20410;-86
2024/02/27 08:18:43;;;;;;;16.43;11.40;;;;;;;;;;5032258;28;20418;-85
2024/02/27 08:21:09;;;;;;;19.27;12.33;;;;;;;;;;5034094;28;20801;-87
2024/02/27 08:23:36;;;;;;;15.20;11.40;;;;;;;;;;5035999;28;20922;-87
2024/02/27 08:26:02;;;;;;;15.10;10.73;;;;;;;;;;5035599;28;20508;-93
2024/02/27 08:28:28;;;;;;;19.70;12.27;;;;;;;;;;5035596;28;20963;-92
2024/02/27 08:30:54;;;;;;;22.17;12.53;;;;;;;;;;5036005;28;20419;-89
2024/02/27 08:33:20;;;;;;;15.30;11.80;;;;;;;;;;5035335;28;20784;-91
2024/02/27 08:35:49;;;;;;;15.23;9.80;;;;;;;;;;5036553;28;20989;-88
2024/02/27 08:38:15;;;;;;;15.60;10.60;;;;;;;;;;5035479;28;20413;-88
2024/02/27 08:40:41;;;;;;;17.67;10.80;;;;;;;;;;5035153;28;20470;-88
2024/02/27 08:43:07;;;;;;;13.50;8.77;;;;;;;;;;5034964;28;20926;-91
2024/02/27 08:45:37;;;;;;;15.83;10.80;;;;;;;;;;5034815;28;20497;-91
2024/02/27 08:48:03;;;;;;;12.53;9.30;;;;;;;;;;5034986;28;20422;-88
2024/02/27 08:50:29;;;;;;;13.70;10.37;;;;;;;;;;5034875;28;20422;-89
2024/02/27 08:52:55;;;;;;;14.47;9.83;;;;;;;;;;5034598;28;20418;-88
2024/02/27 08:55:24;;;;;;;14.13;11.20;;;;;;;;;;5035926;28;20471;-89
2024/02/27 08:57:50;;;;;;;11.77;8.67;;;;;;;;;;5034826;28;20946;-89
2024/02/27 09:00:17;;;;;;;14.43;10.10;;;;;;;;;;5034557;28;20929;-88
2024/02/27 09:02:43;;;;;;;12.23;10.10;;;;;;;;;;5035277;28;20465;-88
2024/02/27 09:05:09;;;;;;;15.10;10.57;;;;;;;;;;5034255;28;20502;-88
2024/02/27 09:07:42;;;;;;;15.30;10.40;;;;;;;;;;5034720;28;20421;-88
2024/02/27 09:10:12;;;;;;;12.50;9.00;;;;;;;;;;5034711;28;20803;-90
2024/02/27 09:12:39;;;;;;;14.90;9.87;;;;;;;;;;5036083;28;20837;-89
2024/02/27 09:15:05;;;;;;;13.00;9.83;;;;;;;;;;5034175;28;20465;-88
2024/02/27 09:17:31;;;;;;;15.30;10.57;;;;;;;;;;5034997;28;20420;-87
2024/02/27 09:19:58;;;;;;;14.53;9.50;;;;;;;;;;5033894;28;20418;-88
2024/02/27 09:22:24;;;;;;;11.80;9.20;;;;;;;;;;5035136;28;20490;-88
2024/02/27 09:24:50;;;;;;;15.20;9.43;;;;;;;;;;5035007;28;20514;-87
2024/02/27 09:27:16;;;;;;;11.30;9.17;;;;;;;;;;5033724;28;20921;-86
2024/02/27 09:29:43;;;;;;;15.00;10.40;;;;;;;;;;5033682;28;20555;-86
2024/02/27 09:32:09;;;;;;;12.47;9.30;;;;;;;;;;5033707;28;20412;-87
2024/02/27 09:34:35;;;;;;;11.60;8.80;;;;;;;;;;5034676;28;20837;-88
2024/02/27 09:37:00;;;;;;;10.33;8.70;;;;;;;;;;5033224;28;20554;-88
2024/02/27 09:39:26;;;;;;;14.30;8.80;;;;;;;;;;5034501;28;20458;-87
2024/02/27 09:41:59;;;;;;;11.73;8.67;;;;;;;;;;5034684;28;20423;-89
2024/02/27 09:44:30;;;;;;;11.97;9.87;;;;;;;;;;5034160;28;20987;-91
2024/02/27 09:46:57;;;;;;;14.30;9.53;;;;;;;;;;5033913;28;20419;-88
2024/02/27 09:49:23;;;;;;;11.87;8.80;;;;;;;;;;5034120;28;20838;-89
2024/02/27 09:51:50;;;;;;;13.40;9.10;;;;;;;;;;5033779;28;20412;-89
2024/02/27 09:54:16;;;;;;;13.30;9.80;;;;;;;;;;5033476;28;20466;-90
2024/02/27 09:56:46;;;;;;;13.50;10.00;;;;;;;;;;5038253;28;20484;-88
2024/02/27 09:59:12;;;;;;;15.43;10.23;;;;;;;;;;5033907;28;20418;-88
2024/02/27 10:01:44;;;;;;;15.63;10.07;;;;;;;;;;5033640;28;20427;-89
2024/02/27 10:04:10;;;;;;;12.93;9.03;;;;;;;;;;5033316;28;20422;-90
2024/02/27 10:06:36;;;;;;;14.43;11.00;;;;;;;;;;5033340;28;20428;-91
2024/02/27 10:09:06;;;;;;;12.93;8.97;;;;;;;;;;5033515;28;20437;-90
2024/02/27 10:11:32;;;;;;;12.67;9.17;;;;;;;;;;5033458;28;20434;-91
2024/02/27 10:13:59;;;;;;;12.03;8.43;;;;;;;;;;5033682;28;20510;-90
2024/02/27 10:16:25;;;;;;;11.10;7.97;;;;;;;;;;5047307;28;20423;-89
2024/02/27 10:18:51;;;;;;;11.60;8.50;;;;;;;;;;5043549;28;20517;-91
2024/02/27 10:21:18;;;;;;;10.43;9.03;;;;;;;;;;5038876;28;20423;-83
2024/02/27 10:23:45;;;;;;;11.40;8.53;;;;;;;;;;5034855;28;20504;-86
2024/02/27 10:26:12;;;;;;;9.93;7.60;;;;;;;;;;5032982;28;20407;-82
2024/02/27 10:28:38;;;;;;;11.53;9.57;;;;;;;;;;5029178;28;20447;-83
2024/02/27 10:31:14;;;;;;;10.80;8.50;;;;;;;;;;5032006;28;20427;-82
2024/02/27 10:33:43;;;;;;;11.57;9.73;;;;;;;;;;5033498;28;20809;-85
2024/02/27 10:36:10;;;;;;;12.47;9.03;;;;;;;;;;5033632;28;20468;-83
2024/02/27 10:38:36;;;;;;;12.60;8.77;;;;;;;;;;5033523;28;20482;-83
2024/02/27 10:41:02;;;;;;;9.67;7.90;;;;;;;;;;5032881;28;20446;-83
2024/02/27 10:43:28;;;;;;;10.97;8.93;;;;;;;;;;5033278;28;20443;-84
2024/02/27 10:45:58;;;;;;;12.50;8.77;;;;;;;;;;5032295;28;20430;-87
2024/02/27 10:48:24;;;;;;;13.47;10.23;;;;;;;;;;5031371;28;20510;-85
2024/02/27 10:50:50;;;;;;;10.33;8.93;;;;;;;;;;5031152;28;20422;-82
2024/02/27 10:53:19;;;;;;;9.90;8.90;;;;;;;;;;5033050;28;20895;-84
2024/02/27 10:55:47;;;;;;;13.13;9.20;;;;;;;;;;5031371;28;20483;-85
2024/02/27 10:58:13;;;;;;;12.37;9.33;;;;;;;;;;5031557;28;20455;-83
2024/02/27 11:00:39;;;;;;;12.23;7.73;;;;;;;;;;5032553;28;20419;-86
2024/02/27 11:03:06;;;;;;;12.73;9.43;;;;;;;;;;5031256;28;20481;-85
2024/02/27 11:05:33;;;;;;;10.80;9.30;;;;;;;;;;5031584;28;20434;-83
2024/02/27 11:08:00;;;;;;;11.13;8.00;;;;;;;;;;5032985;28;20461;-82
2024/02/27 11:10:29;;;;;;;10.13;7.83;;;;;;;;;;5032598;28;20416;-85
2024/02/27 11:12:55;;;;;;;12.47;8.40;;;;;;;;;;5032997;28;20407;-85
2024/02/27 11:15:22;;;;;;;11.10;9.37;;;;;;;;;;5032845;28;20474;-88
2024/02/27 11:17:57;;;;;;;11.10;9.00;;;;;;;;;;5033606;28;20838;-85
2024/02/27 11:20:23;;;;;;;12.60;10.10;;;;;;;;;;5034000;28;20749;-84
2024/02/27 11:22:50;;;;;;;11.13;9.00;;;;;;;;;;5033529;28;20467;-82
2024/02/27 11:25:16;;;;;;;10.40;9.00;;;;;;;;;;5033154;28;20414;-87
2024/02/27 11:27:43;;;;;;;9.77;8.43;;;;;;;;;;5033149;28;20413;-89
2024/02/27 11:30:09;;;;;;;9.53;7.20;;;;;;;;;;5033498;28;20479;-86
2024/02/27 11:32:36;;;;;;;12.90;9.40;;;;;;;;;;5033346;28;20473;-88
2024/02/27 11:35:02;;;;;;;14.50;9.70;;;;;;;;;;5033843;28;20475;-86
2024/02/27 11:37:29;;;;;;;10.00;8.47;;;;;;;;;;5033500;28;20419;-87
2024/02/27 11:39:55;;;;;;;11.83;9.70;;;;;;;;;;5033508;28;20471;-86
2024/02/27 11:42:32;;;;;;;10.07;8.23;;;;;;;;;;5033734;28;20408;-88
2024/02/27 11:45:02;;;;;;;9.93;7.17;;;;;;;;;;5033689;28;20442;-84
2024/02/27 11:47:47;;;;;;;8.53;7.23;;;;;;;;;;5032880;28;20423;-87
2024/02/27 11:50:37;;;;;;;9.30;7.40;;;;;;;;;;5033200;28;20419;-86
2024/02/27 11:53:21;;;;;;;8.23;6.80;;;;;;;;;;5032497;28;20454;-86
2024/02/27 11:55:48;;;;;;;9.27;6.77;;;;;;;;;;5035430;28;20559;-85
2024/02/27 11:58:14;;;;;;;9.23;8.10;;;;;;;;;;5036766;28;20837;-87
2024/02/27 12:00:40;;;;;;;9.30;6.83;;;;;;;;;;5035235;28;20935;-85
2024/02/27 12:03:06;;;;;;;9.10;8.10;;;;;;;;;;5036107;28;20507;-85
2024/02/27 12:05:32;;;;;;;10.10;7.47;;;;;;;;;;5036284;28;20422;-86
2024/02/27 12:08:02;;;;;;;8.70;7.60;;;;;;;;;;5036288;28;20882;-83
2024/02/27 12:10:28;;;;;;;9.30;7.97;;;;;;;;;;5036110;28;20499;-83
2024/02/27 12:12:54;;;;;;;9.20;6.87;;;;;;;;;;5036441;28;20410;-86
2024/02/27 12:15:20;;;;;;;10.13;7.50;;;;;;;;;;5035183;28;20833;-84
2024/02/27 12:17:46;;;;;;;8.43;7.50;;;;;;;;;;5036071;28;20563;-84
2024/02/27 12:20:13;;;;;;;8.83;7.43;;;;;;;;;;5036121;28;20507;-82
2024/02/27 12:22:44;;;;;;;9.37;6.60;;;;;;;;;;5035658;28;20461;-85
2024/02/27 12:25:10;;;;;;;9.50;7.03;;;;;;;;;;5035898;28;20516;-84
2024/02/27 12:27:37;;;;;;;7.60;6.87;;;;;;;;;;5035716;28;20513;-86
2024/02/27 12:30:10;;;;;;;9.00;6.33;;;;;;;;;;5036012;28;21147;-86
2024/02/27 12:32:36;;;;;;;9.67;6.77;;;;;;;;;;5034221;28;20419;-83
2024/02/27 12:35:06;;;;;;;7.73;6.10;;;;;;;;;;5035692;28;21071;-87
2024/02/27 12:37:44;;;;;;;7.77;6.77;;;;;;;;;;5034521;28;20520;-81
2024/02/27 12:40:14;;;;;;;6.37;5.77;;;;;;;;;;5035161;28;20474;-78
2024/02/27 12:42:40;;;;;;;8.40;6.53;;;;;;;;;;5035231;28;20417;-81
2024/02/27 12:45:10;;;;;;;7.13;6.00;;;;;;;;;;5035790;28;20401;-78
2024/02/27 12:47:36;;;;;;;9.00;8.03;;;;;;;;;;5035157;28;20580;-78
2024/02/27 12:50:02;;;;;;;11.00;7.87;;;;;;;;;;5035491;28;20436;-78
2024/02/27 12:52:28;;;;;;;8.13;6.67;;;;;;;;;;5035029;28;20437;-79
2024/02/27 12:54:55;;;;;;;11.47;8.00;;;;;;;;;;5034866;28;20472;-78
2024/02/27 12:57:21;;;;;;;6.83;5.70;;;;;;;;;;5034935;28;20421;-78
2024/02/27 12:59:47;;;;;;;8.73;6.63;;;;;;;;;;5034772;28;20450;-79
2024/02/27 13:02:13;;;;;;;8.63;6.67;;;;;;;;;;5034388;28;20434;-79
2024/02/27 13:04:41;;;;;;;8.70;6.63;;;;;;;;;;5034783;28;20175;-83
2024/02/27 13:07:09;;;;;;;7.90;6.43;;;;;;;;;;5033304;28;20452;-81
2024/02/27 13:09:35;;;;;;;7.93;5.70;;;;;;;;;;5034708;28;20417;-79
2024/02/27 13:12:05;;;;;;;7.10;5.67;;;;;;;;;;5034991;28;20944;-79
2024/02/27 13:14:31;;;;;;;8.33;6.70;;;;;;;;;;5033840;28;20569;-79
2024/02/27 13:16:57;;;;;;;7.90;6.30;;;;;;;;;;5033500;28;20424;-79
2024/02/27 13:19:23;;;;;;;8.27;6.40;;;;;;;;;;5033586;28;20424;-77
2024/02/27 13:22:02;;;;;;;7.20;6.20;;;;;;;;;;5034115;28;20179;-80
2024/02/27 13:24:28;;;;;;;10.00;6.43;;;;;;;;;;5035304;28;20536;-78
2024/02/27 13:26:55;;;;;;;7.40;5.50;;;;;;;;;;5035054;28;20447;-81
2024/02/27 13:29:22;;;;;;;7.70;6.67;;;;;;;;;;5035254;28;20807;-79
2024/02/27 13:31:48;;;;;;;9.53;6.33;;;;;;;;;;5035355;28;20409;-80
2024/02/27 13:34:19;;;;;;;10.70;6.60;;;;;;;;;;5035491;28;20457;-80
2024/02/27 13:36:47;;;;;;;6.63;5.93;;;;;;;;;;5035288;28;20423;-79
2024/02/27 13:39:13;;;;;;;7.70;6.30;;;;;;;;;;5034993;28;20479;-79
2024/02/27 13:41:40;;;;;;;10.30;6.90;;;;;;;;;;5035357;28;20484;-81
2024/02/27 13:44:06;;;;;;;9.43;6.80;;;;;;;;;;5035619;28;20405;-79
2024/02/27 13:46:32;;;;;;;7.50;6.40;;;;;;;;;;5035079;28;20421;-80
2024/02/27 13:48:58;;;;;;;11.00;7.23;;;;;;;;;;5035228;28;20417;-79
2024/02/27 13:51:30;;;;;;;8.57;5.93;;;;;;;;;;5035048;28;20440;-79
2024/02/27 13:53:56;;;;;;;9.93;7.50;;;;;;;;;;5035241;28;20444;-81
2024/02/27 13:56:22;;;;;;;8.80;7.20;;;;;;;;;;5035524;28;20421;-78
2024/02/27 13:58:48;;;;;;;7.30;6.13;;;;;;;;;;5035410;28;20414;-79
2024/02/27 14:01:14;;;;;;;7.97;6.97;;;;;;;;;;5034792;28;20916;-79
2024/02/27 14:03:40;;;;;;;8.07;6.83;;;;;;;;;;5035397;28;20404;-78
2024/02/27 14:06:06;;;;;;;9.50;7.60;;;;;;;;;;5034679;28;20413;-81
2024/02/27 14:08:33;;;;;;;7.03;5.57;;;;;;;;;;5035058;28;20484;-82
2024/02/27 14:10:59;;;;;;;7.90;6.67;;;;;;;;;;5034680;28;20607;-78
2024/02/27 14:13:26;;;;;;;7.13;6.10;;;;;;;;;;5034891;28;20408;-80
2024/02/27 14:15:52;;;;;;;8.70;6.40;;;;;;;;;;5034978;28;20473;-80
2024/02/27 14:18:18;;;;;;;6.07;5.47;;;;;;;;;;5033809;28;20505;-81
2024/02/27 14:20:44;;;;;;;7.30;5.53;;;;;;;;;;5034173;28;20452;-81
2024/02/27 14:23:10;;;;;;;7.73;5.70;;;;;;;;;;5034209;28;20412;-77